sensor_id;sensor_type;location;lat;lon;timestamp;P1;durP1;ratioP1;P2;durP2;ratioP2
22030;SDS011;11179;52.106;21.024;2023-11-19T00:01:48;65.45;;;29.85;;
22030;SDS011;11179;52.106;21.024;2023-11-19T00:04:14;61.60;;;30.20;;
22030;SDS011;11179;52.106;21.024;2023-11-19T00:06:39;60.20;;;30.03;;
22030;SDS011;11179;52.106;21.024;2023-11-19T00:09:04;64.87;;;29.37;;
22030;SDS011;11179;52.106;21.024;2023-11-19T00:11:30;64.17;;;28.20;;
22030;SDS011;11179;52.106;21.024;2023-11-19T00:13:56;69.23;;;31.50;;
22030;SDS011;11179;52.106;21.024;2023-11-19T00:16:21;61.73;;;29.30;;
22030;SDS011;11179;52.106;21.024;2023-11-19T00:18:46;63.40;;;30.07;;
22030;SDS011;11179;52.106;21.024;2023-11-19T00:21:12;63.10;;;30.07;;
22030;SDS011;11179;52.106;21.024;2023-11-19T00:23:37;59.80;;;29.33;;
22030;SDS011;11179;52.106;21.024;2023-11-19T00:26:03;66.63;;;30.47;;
22030;SDS011;11179;52.106;21.024;2023-11-19T00:28:30;60.60;;;29.70;;
22030;SDS011;11179;52.106;21.024;2023-11-19T00:30:56;59.20;;;29.90;;
22030;SDS011;11179;52.106;21.024;2023-11-19T00:33:22;66.13;;;30.00;;
22030;SDS011;11179;52.106;21.024;2023-11-19T00:35:47;60.70;;;28.00;;
22030;SDS011;11179;52.106;21.024;2023-11-19T00:38:13;60.20;;;28.98;;
22030;SDS011;11179;52.106;21.024;2023-11-19T00:40:38;60.93;;;29.70;;
22030;SDS011;11179;52.106;21.024;2023-11-19T00:43:05;61.33;;;28.75;;
22030;SDS011;11179;52.106;21.024;2023-11-19T00:45:31;66.47;;;30.73;;
22030;SDS011;11179;52.106;21.024;2023-11-19T00:47:56;69.97;;;34.40;;
22030;SDS011;11179;52.106;21.024;2023-11-19T00:50:24;61.80;;;31.73;;
22030;SDS011;11179;52.106;21.024;2023-11-19T00:52:49;78.83;;;36.47;;
22030;SDS011;11179;52.106;21.024;2023-11-19T00:55:14;75.83;;;34.50;;
22030;SDS011;11179;52.106;21.024;2023-11-19T00:57:40;72.70;;;33.20;;
22030;SDS011;11179;52.106;21.024;2023-11-19T01:00:05;68.77;;;33.77;;
22030;SDS011;11179;52.106;21.024;2023-11-19T01:02:42;59.75;;;29.38;;
22030;SDS011;11179;52.106;21.024;2023-11-19T01:05:08;62.47;;;28.03;;
22030;SDS011;11179;52.106;21.024;2023-11-19T01:07:34;69.50;;;29.80;;
22030;SDS011;11179;52.106;21.024;2023-11-19T01:09:59;60.63;;;28.93;;
22030;SDS011;11179;52.106;21.024;2023-11-19T01:12:24;76.23;;;32.90;;
22030;SDS011;11179;52.106;21.024;2023-11-19T01:14:50;73.10;;;32.37;;
22030;SDS011;11179;52.106;21.024;2023-11-19T01:17:15;75.37;;;35.90;;
22030;SDS011;11179;52.106;21.024;2023-11-19T01:19:41;71.77;;;32.83;;
22030;SDS011;11179;52.106;21.024;2023-11-19T01:22:06;74.60;;;32.30;;
22030;SDS011;11179;52.106;21.024;2023-11-19T01:24:32;80.87;;;32.83;;
22030;SDS011;11179;52.106;21.024;2023-11-19T01:26:57;66.83;;;30.20;;
22030;SDS011;11179;52.106;21.024;2023-11-19T01:29:24;65.18;;;29.27;;
22030;SDS011;11179;52.106;21.024;2023-11-19T01:31:50;65.33;;;29.50;;
22030;SDS011;11179;52.106;21.024;2023-11-19T01:34:18;71.35;;;31.85;;
22030;SDS011;11179;52.106;21.024;2023-11-19T01:36:43;78.07;;;36.37;;
22030;SDS011;11179;52.106;21.024;2023-11-19T01:39:09;68.13;;;31.50;;
22030;SDS011;11179;52.106;21.024;2023-11-19T01:41:34;75.60;;;34.03;;
22030;SDS011;11179;52.106;21.024;2023-11-19T01:44:01;72.82;;;33.60;;
22030;SDS011;11179;52.106;21.024;2023-11-19T01:46:26;75.47;;;32.73;;
22030;SDS011;11179;52.106;21.024;2023-11-19T01:48:52;68.77;;;32.13;;
22030;SDS011;11179;52.106;21.024;2023-11-19T01:51:17;76.97;;;33.30;;
22030;SDS011;11179;52.106;21.024;2023-11-19T01:53:43;79.80;;;35.73;;
22030;SDS011;11179;52.106;21.024;2023-11-19T01:56:09;79.20;;;35.30;;
22030;SDS011;11179;52.106;21.024;2023-11-19T01:58:39;71.63;;;32.65;;
22030;SDS011;11179;52.106;21.024;2023-11-19T02:01:06;68.00;;;31.58;;
22030;SDS011;11179;52.106;21.024;2023-11-19T02:03:32;77.90;;;31.63;;
22030;SDS011;11179;52.106;21.024;2023-11-19T02:05:59;74.85;;;32.55;;
22030;SDS011;11179;52.106;21.024;2023-11-19T02:08:25;74.82;;;34.25;;
22030;SDS011;11179;52.106;21.024;2023-11-19T02:10:51;75.17;;;32.73;;
22030;SDS011;11179;52.106;21.024;2023-11-19T02:13:17;77.40;;;32.37;;
22030;SDS011;11179;52.106;21.024;2023-11-19T02:15:43;70.00;;;31.52;;
22030;SDS011;11179;52.106;21.024;2023-11-19T02:18:22;69.23;;;31.27;;
22030;SDS011;11179;52.106;21.024;2023-11-19T02:20:49;67.60;;;30.25;;
22030;SDS011;11179;52.106;21.024;2023-11-19T02:23:15;74.50;;;32.92;;
22030;SDS011;11179;52.106;21.024;2023-11-19T02:25:40;70.57;;;31.03;;
22030;SDS011;11179;52.106;21.024;2023-11-19T02:28:07;68.63;;;31.85;;
22030;SDS011;11179;52.106;21.024;2023-11-19T02:30:33;77.10;;;33.03;;
22030;SDS011;11179;52.106;21.024;2023-11-19T02:32:59;74.30;;;30.97;;
22030;SDS011;11179;52.106;21.024;2023-11-19T02:35:28;67.30;;;28.50;;
22030;SDS011;11179;52.106;21.024;2023-11-19T02:37:56;73.97;;;32.55;;
22030;SDS011;11179;52.106;21.024;2023-11-19T02:40:22;72.30;;;32.20;;
22030;SDS011;11179;52.106;21.024;2023-11-19T02:42:51;71.05;;;30.38;;
22030;SDS011;11179;52.106;21.024;2023-11-19T02:45:17;72.55;;;29.48;;
22030;SDS011;11179;52.106;21.024;2023-11-19T02:47:43;74.53;;;31.40;;
22030;SDS011;11179;52.106;21.024;2023-11-19T02:50:09;64.75;;;29.05;;
22030;SDS011;11179;52.106;21.024;2023-11-19T02:52:42;70.82;;;31.17;;
22030;SDS011;11179;52.106;21.024;2023-11-19T02:55:08;70.13;;;29.50;;
22030;SDS011;11179;52.106;21.024;2023-11-19T02:57:37;71.63;;;30.55;;
22030;SDS011;11179;52.106;21.024;2023-11-19T03:00:03;63.78;;;27.77;;
22030;SDS011;11179;52.106;21.024;2023-11-19T03:02:38;62.85;;;28.52;;
22030;SDS011;11179;52.106;21.024;2023-11-19T03:05:09;64.30;;;27.38;;
22030;SDS011;11179;52.106;21.024;2023-11-19T03:07:35;59.13;;;26.13;;
22030;SDS011;11179;52.106;21.024;2023-11-19T03:10:01;67.57;;;29.98;;
22030;SDS011;11179;52.106;21.024;2023-11-19T03:12:26;62.80;;;27.53;;
22030;SDS011;11179;52.106;21.024;2023-11-19T03:14:52;71.13;;;30.97;;
22030;SDS011;11179;52.106;21.024;2023-11-19T03:17:17;67.60;;;28.30;;
22030;SDS011;11179;52.106;21.024;2023-11-19T03:19:43;71.93;;;29.92;;
22030;SDS011;11179;52.106;21.024;2023-11-19T03:22:09;60.80;;;27.90;;
22030;SDS011;11179;52.106;21.024;2023-11-19T03:24:36;67.10;;;27.67;;
22030;SDS011;11179;52.106;21.024;2023-11-19T03:27:01;66.03;;;29.20;;
22030;SDS011;11179;52.106;21.024;2023-11-19T03:29:26;68.13;;;29.87;;
22030;SDS011;11179;52.106;21.024;2023-11-19T03:31:53;64.57;;;28.00;;
22030;SDS011;11179;52.106;21.024;2023-11-19T03:34:18;55.47;;;25.67;;
22030;SDS011;11179;52.106;21.024;2023-11-19T03:36:44;56.30;;;26.17;;
22030;SDS011;11179;52.106;21.024;2023-11-19T03:39:09;61.77;;;27.20;;
22030;SDS011;11179;52.106;21.024;2023-11-19T03:41:34;62.90;;;26.40;;
22030;SDS011;11179;52.106;21.024;2023-11-19T03:44:00;58.07;;;26.43;;
22030;SDS011;11179;52.106;21.024;2023-11-19T03:46:25;61.13;;;26.50;;
22030;SDS011;11179;52.106;21.024;2023-11-19T03:48:50;60.60;;;27.90;;
22030;SDS011;11179;52.106;21.024;2023-11-19T03:51:16;56.17;;;27.20;;
22030;SDS011;11179;52.106;21.024;2023-11-19T03:53:42;60.05;;;25.85;;
22030;SDS011;11179;52.106;21.024;2023-11-19T03:56:08;68.63;;;28.77;;
22030;SDS011;11179;52.106;21.024;2023-11-19T03:58:35;58.45;;;27.27;;
22030;SDS011;11179;52.106;21.024;2023-11-19T04:01:00;64.17;;;28.10;;
22030;SDS011;11179;52.106;21.024;2023-11-19T04:03:26;57.87;;;25.93;;
22030;SDS011;11179;52.106;21.024;2023-11-19T04:05:51;66.17;;;27.83;;
22030;SDS011;11179;52.106;21.024;2023-11-19T04:08:17;72.27;;;30.10;;
22030;SDS011;11179;52.106;21.024;2023-11-19T04:10:42;65.40;;;28.50;;
22030;SDS011;11179;52.106;21.024;2023-11-19T04:13:07;77.53;;;30.33;;
22030;SDS011;11179;52.106;21.024;2023-11-19T04:15:33;72.83;;;30.70;;
22030;SDS011;11179;52.106;21.024;2023-11-19T04:17:58;74.00;;;30.93;;
22030;SDS011;11179;52.106;21.024;2023-11-19T04:20:23;73.00;;;31.90;;
22030;SDS011;11179;52.106;21.024;2023-11-19T04:22:49;68.40;;;29.20;;
22030;SDS011;11179;52.106;21.024;2023-11-19T04:25:16;71.90;;;30.40;;
22030;SDS011;11179;52.106;21.024;2023-11-19T04:27:41;65.83;;;28.50;;
22030;SDS011;11179;52.106;21.024;2023-11-19T04:30:07;68.77;;;28.17;;
22030;SDS011;11179;52.106;21.024;2023-11-19T04:32:32;59.93;;;26.60;;
22030;SDS011;11179;52.106;21.024;2023-11-19T04:34:57;65.03;;;30.77;;
22030;SDS011;11179;52.106;21.024;2023-11-19T04:37:23;68.70;;;28.20;;
22030;SDS011;11179;52.106;21.024;2023-11-19T04:39:48;75.30;;;31.47;;
22030;SDS011;11179;52.106;21.024;2023-11-19T04:42:13;69.23;;;29.27;;
22030;SDS011;11179;52.106;21.024;2023-11-19T04:44:42;67.25;;;30.45;;
22030;SDS011;11179;52.106;21.024;2023-11-19T04:47:08;67.25;;;29.17;;
22030;SDS011;11179;52.106;21.024;2023-11-19T04:49:35;75.43;;;30.20;;
22030;SDS011;11179;52.106;21.024;2023-11-19T04:52:05;73.25;;;29.42;;
22030;SDS011;11179;52.106;21.024;2023-11-19T04:54:30;73.30;;;30.07;;
22030;SDS011;11179;52.106;21.024;2023-11-19T04:56:55;68.93;;;30.13;;
22030;SDS011;11179;52.106;21.024;2023-11-19T04:59:21;68.07;;;27.90;;
22030;SDS011;11179;52.106;21.024;2023-11-19T05:01:46;77.77;;;31.60;;
22030;SDS011;11179;52.106;21.024;2023-11-19T05:04:13;69.60;;;28.73;;
22030;SDS011;11179;52.106;21.024;2023-11-19T05:06:38;55.67;;;23.90;;
22030;SDS011;11179;52.106;21.024;2023-11-19T05:09:03;70.27;;;29.53;;
22030;SDS011;11179;52.106;21.024;2023-11-19T05:11:37;66.93;;;28.63;;
22030;SDS011;11179;52.106;21.024;2023-11-19T05:14:03;73.00;;;31.27;;
22030;SDS011;11179;52.106;21.024;2023-11-19T05:16:29;68.43;;;29.07;;
22030;SDS011;11179;52.106;21.024;2023-11-19T05:18:54;61.13;;;26.17;;
22030;SDS011;11179;52.106;21.024;2023-11-19T05:21:19;71.10;;;30.77;;
22030;SDS011;11179;52.106;21.024;2023-11-19T05:23:45;69.13;;;27.97;;
22030;SDS011;11179;52.106;21.024;2023-11-19T05:26:18;54.65;;;25.10;;
22030;SDS011;11179;52.106;21.024;2023-11-19T05:28:44;59.30;;;24.55;;
22030;SDS011;11179;52.106;21.024;2023-11-19T05:31:10;52.80;;;25.07;;
22030;SDS011;11179;52.106;21.024;2023-11-19T05:33:35;54.73;;;24.53;;
22030;SDS011;11179;52.106;21.024;2023-11-19T05:36:01;73.20;;;28.63;;
22030;SDS011;11179;52.106;21.024;2023-11-19T05:38:28;61.63;;;26.83;;
22030;SDS011;11179;52.106;21.024;2023-11-19T05:40:54;57.67;;;25.10;;
22030;SDS011;11179;52.106;21.024;2023-11-19T05:43:19;55.80;;;25.47;;
22030;SDS011;11179;52.106;21.024;2023-11-19T05:45:44;54.30;;;26.17;;
22030;SDS011;11179;52.106;21.024;2023-11-19T05:48:10;54.77;;;22.77;;
22030;SDS011;11179;52.106;21.024;2023-11-19T05:50:35;59.23;;;24.40;;
22030;SDS011;11179;52.106;21.024;2023-11-19T05:53:01;56.33;;;24.63;;
22030;SDS011;11179;52.106;21.024;2023-11-19T05:55:26;56.63;;;24.23;;
22030;SDS011;11179;52.106;21.024;2023-11-19T05:57:53;49.78;;;23.45;;
22030;SDS011;11179;52.106;21.024;2023-11-19T06:00:19;51.90;;;23.93;;
22030;SDS011;11179;52.106;21.024;2023-11-19T06:02:44;47.37;;;22.20;;
22030;SDS011;11179;52.106;21.024;2023-11-19T06:05:10;41.97;;;20.27;;
22030;SDS011;11179;52.106;21.024;2023-11-19T06:07:35;38.87;;;17.93;;
22030;SDS011;11179;52.106;21.024;2023-11-19T06:10:01;35.73;;;17.80;;
22030;SDS011;11179;52.106;21.024;2023-11-19T06:12:28;36.03;;;17.40;;
22030;SDS011;11179;52.106;21.024;2023-11-19T06:14:53;41.80;;;18.40;;
22030;SDS011;11179;52.106;21.024;2023-11-19T06:17:18;31.67;;;15.87;;
22030;SDS011;11179;52.106;21.024;2023-11-19T06:19:44;29.33;;;15.50;;
22030;SDS011;11179;52.106;21.024;2023-11-19T06:22:10;26.60;;;13.10;;
22030;SDS011;11179;52.106;21.024;2023-11-19T06:24:36;29.37;;;13.90;;
22030;SDS011;11179;52.106;21.024;2023-11-19T06:27:01;25.60;;;11.50;;
22030;SDS011;11179;52.106;21.024;2023-11-19T06:29:27;26.60;;;13.23;;
22030;SDS011;11179;52.106;21.024;2023-11-19T06:31:53;27.13;;;12.73;;
22030;SDS011;11179;52.106;21.024;2023-11-19T06:34:18;30.03;;;14.40;;
22030;SDS011;11179;52.106;21.024;2023-11-19T06:36:44;24.23;;;12.17;;
22030;SDS011;11179;52.106;21.024;2023-11-19T06:39:09;25.57;;;13.30;;
22030;SDS011;11179;52.106;21.024;2023-11-19T06:41:35;22.30;;;11.82;;
22030;SDS011;11179;52.106;21.024;2023-11-19T06:44:02;19.98;;;10.90;;
22030;SDS011;11179;52.106;21.024;2023-11-19T06:46:29;20.63;;;11.35;;
22030;SDS011;11179;52.106;21.024;2023-11-19T06:48:55;20.87;;;12.70;;
22030;SDS011;11179;52.106;21.024;2023-11-19T06:51:20;22.30;;;12.30;;
22030;SDS011;11179;52.106;21.024;2023-11-19T06:53:45;24.33;;;13.70;;
22030;SDS011;11179;52.106;21.024;2023-11-19T06:56:17;20.50;;;11.50;;
22030;SDS011;11179;52.106;21.024;2023-11-19T06:58:46;20.60;;;12.45;;
22030;SDS011;11179;52.106;21.024;2023-11-19T07:01:12;21.05;;;11.98;;
22030;SDS011;11179;52.106;21.024;2023-11-19T07:03:38;22.23;;;12.63;;
22030;SDS011;11179;52.106;21.024;2023-11-19T07:06:03;25.53;;;14.10;;
22030;SDS011;11179;52.106;21.024;2023-11-19T07:08:30;25.05;;;13.57;;
22030;SDS011;11179;52.106;21.024;2023-11-19T07:10:55;23.50;;;12.40;;
22030;SDS011;11179;52.106;21.024;2023-11-19T07:13:21;24.40;;;12.47;;
22030;SDS011;11179;52.106;21.024;2023-11-19T07:15:46;26.50;;;14.73;;
22030;SDS011;11179;52.106;21.024;2023-11-19T07:18:11;22.00;;;12.10;;
22030;SDS011;11179;52.106;21.024;2023-11-19T07:20:37;21.80;;;11.27;;
22030;SDS011;11179;52.106;21.024;2023-11-19T07:23:03;22.67;;;12.47;;
22030;SDS011;11179;52.106;21.024;2023-11-19T07:25:28;25.97;;;13.80;;
22030;SDS011;11179;52.106;21.024;2023-11-19T07:27:54;24.60;;;12.93;;
22030;SDS011;11179;52.106;21.024;2023-11-19T07:30:19;21.80;;;11.77;;
22030;SDS011;11179;52.106;21.024;2023-11-19T07:32:44;26.20;;;14.57;;
22030;SDS011;11179;52.106;21.024;2023-11-19T07:35:09;22.00;;;13.33;;
22030;SDS011;11179;52.106;21.024;2023-11-19T07:37:35;28.43;;;15.00;;
22030;SDS011;11179;52.106;21.024;2023-11-19T07:40:00;28.17;;;15.00;;
22030;SDS011;11179;52.106;21.024;2023-11-19T07:42:26;24.27;;;12.63;;
22030;SDS011;11179;52.106;21.024;2023-11-19T07:44:51;25.97;;;14.13;;
22030;SDS011;11179;52.106;21.024;2023-11-19T07:47:16;23.93;;;13.73;;
22030;SDS011;11179;52.106;21.024;2023-11-19T07:49:41;26.90;;;14.13;;
22030;SDS011;11179;52.106;21.024;2023-11-19T07:52:09;29.60;;;14.30;;
22030;SDS011;11179;52.106;21.024;2023-11-19T07:54:34;27.30;;;13.80;;
22030;SDS011;11179;52.106;21.024;2023-11-19T07:56:59;27.67;;;14.93;;
22030;SDS011;11179;52.106;21.024;2023-11-19T07:59:25;26.27;;;14.07;;
22030;SDS011;11179;52.106;21.024;2023-11-19T08:01:50;25.37;;;14.10;;
22030;SDS011;11179;52.106;21.024;2023-11-19T08:04:15;24.53;;;13.33;;
22030;SDS011;11179;52.106;21.024;2023-11-19T08:06:41;27.40;;;13.67;;
22030;SDS011;11179;52.106;21.024;2023-11-19T08:09:06;28.50;;;15.00;;
22030;SDS011;11179;52.106;21.024;2023-11-19T08:11:32;28.60;;;15.63;;
22030;SDS011;11179;52.106;21.024;2023-11-19T08:13:58;31.70;;;15.10;;
22030;SDS011;11179;52.106;21.024;2023-11-19T08:16:23;28.33;;;14.40;;
22030;SDS011;11179;52.106;21.024;2023-11-19T08:18:49;33.30;;;16.57;;
22030;SDS011;11179;52.106;21.024;2023-11-19T08:21:14;27.90;;;15.37;;
22030;SDS011;11179;52.106;21.024;2023-11-19T08:23:40;28.80;;;14.50;;
22030;SDS011;11179;52.106;21.024;2023-11-19T08:26:05;30.63;;;15.17;;
22030;SDS011;11179;52.106;21.024;2023-11-19T08:28:31;29.53;;;14.93;;
22030;SDS011;11179;52.106;21.024;2023-11-19T08:30:56;29.70;;;15.97;;
22030;SDS011;11179;52.106;21.024;2023-11-19T08:33:21;33.93;;;15.90;;
22030;SDS011;11179;52.106;21.024;2023-11-19T08:35:47;27.90;;;15.47;;
22030;SDS011;11179;52.106;21.024;2023-11-19T08:38:15;28.52;;;13.70;;
22030;SDS011;11179;52.106;21.024;2023-11-19T08:40:41;32.37;;;14.17;;
22030;SDS011;11179;52.106;21.024;2023-11-19T08:43:06;29.90;;;15.20;;
22030;SDS011;11179;52.106;21.024;2023-11-19T08:45:31;32.63;;;14.97;;
22030;SDS011;11179;52.106;21.024;2023-11-19T08:47:57;27.70;;;14.30;;
22030;SDS011;11179;52.106;21.024;2023-11-19T08:50:22;28.40;;;15.23;;
22030;SDS011;11179;52.106;21.024;2023-11-19T08:52:48;27.23;;;15.00;;
22030;SDS011;11179;52.106;21.024;2023-11-19T08:55:14;27.43;;;14.40;;
22030;SDS011;11179;52.106;21.024;2023-11-19T08:57:39;25.43;;;14.40;;
22030;SDS011;11179;52.106;21.024;2023-11-19T09:00:05;25.83;;;14.27;;
22030;SDS011;11179;52.106;21.024;2023-11-19T09:02:36;29.92;;;14.88;;
22030;SDS011;11179;52.106;21.024;2023-11-19T09:05:05;30.70;;;14.82;;
22030;SDS011;11179;52.106;21.024;2023-11-19T09:07:32;29.40;;;15.20;;
22030;SDS011;11179;52.106;21.024;2023-11-19T09:09:58;26.90;;;13.90;;
22030;SDS011;11179;52.106;21.024;2023-11-19T09:12:23;26.80;;;13.87;;
22030;SDS011;11179;52.106;21.024;2023-11-19T09:14:49;28.77;;;14.83;;
22030;SDS011;11179;52.106;21.024;2023-11-19T09:17:14;25.10;;;13.23;;
22030;SDS011;11179;52.106;21.024;2023-11-19T09:23:05;28.67;;;15.27;;
22030;SDS011;11179;52.106;21.024;2023-11-19T09:25:31;25.33;;;13.50;;
22030;SDS011;11179;52.106;21.024;2023-11-19T09:27:56;37.63;;;16.70;;
22030;SDS011;11179;52.106;21.024;2023-11-19T09:30:22;29.53;;;15.17;;
22030;SDS011;11179;52.106;21.024;2023-11-19T09:32:47;29.13;;;15.60;;
22030;SDS011;11179;52.106;21.024;2023-11-19T09:35:13;29.40;;;15.47;;
22030;SDS011;11179;52.106;21.024;2023-11-19T09:37:39;30.90;;;16.27;;
22030;SDS011;11179;52.106;21.024;2023-11-19T09:40:05;32.10;;;15.73;;
22030;SDS011;11179;52.106;21.024;2023-11-19T09:42:35;31.52;;;15.88;;
22030;SDS011;11179;52.106;21.024;2023-11-19T09:45:12;32.92;;;16.60;;
22030;SDS011;11179;52.106;21.024;2023-11-19T09:47:40;36.35;;;17.48;;
22030;SDS011;11179;52.106;21.024;2023-11-19T09:50:08;36.90;;;17.17;;
22030;SDS011;11179;52.106;21.024;2023-11-19T09:52:34;35.85;;;17.77;;
22030;SDS011;11179;52.106;21.024;2023-11-19T09:55:00;30.50;;;15.77;;
22030;SDS011;11179;52.106;21.024;2023-11-19T09:57:25;31.23;;;16.80;;
22030;SDS011;11179;52.106;21.024;2023-11-19T09:59:52;36.78;;;18.35;;
22030;SDS011;11179;52.106;21.024;2023-11-19T10:02:19;33.13;;;18.38;;
22030;SDS011;11179;52.106;21.024;2023-11-19T10:04:45;33.88;;;16.77;;
22030;SDS011;11179;52.106;21.024;2023-11-19T10:07:12;29.90;;;17.42;;
22030;SDS011;11179;52.106;21.024;2023-11-19T10:09:37;33.30;;;16.87;;
22030;SDS011;11179;52.106;21.024;2023-11-19T10:12:03;32.47;;;17.80;;
22030;SDS011;11179;52.106;21.024;2023-11-19T10:14:28;33.90;;;17.70;;
22030;SDS011;11179;52.106;21.024;2023-11-19T10:16:56;34.63;;;17.17;;
22030;SDS011;11179;52.106;21.024;2023-11-19T10:19:22;31.57;;;17.07;;
22030;SDS011;11179;52.106;21.024;2023-11-19T10:21:47;34.37;;;18.30;;
22030;SDS011;11179;52.106;21.024;2023-11-19T10:24:13;34.73;;;17.83;;
22030;SDS011;11179;52.106;21.024;2023-11-19T10:26:39;31.97;;;17.37;;
22030;SDS011;11179;52.106;21.024;2023-11-19T10:29:05;29.55;;;16.85;;
22030;SDS011;11179;52.106;21.024;2023-11-19T10:31:31;31.40;;;16.70;;
22030;SDS011;11179;52.106;21.024;2023-11-19T10:33:56;32.83;;;17.73;;
22030;SDS011;11179;52.106;21.024;2023-11-19T10:36:22;32.83;;;16.87;;
22030;SDS011;11179;52.106;21.024;2023-11-19T10:38:52;31.23;;;16.00;;
22030;SDS011;11179;52.106;21.024;2023-11-19T10:41:31;31.38;;;17.33;;
22030;SDS011;11179;52.106;21.024;2023-11-19T10:43:57;34.25;;;17.45;;
22030;SDS011;11179;52.106;21.024;2023-11-19T10:46:23;36.40;;;18.00;;
22030;SDS011;11179;52.106;21.024;2023-11-19T10:49:01;32.50;;;17.95;;
22030;SDS011;11179;52.106;21.024;2023-11-19T10:51:27;28.70;;;16.07;;
22030;SDS011;11179;52.106;21.024;2023-11-19T10:53:54;32.65;;;16.20;;
22030;SDS011;11179;52.106;21.024;2023-11-19T10:56:25;32.70;;;17.65;;
22030;SDS011;11179;52.106;21.024;2023-11-19T10:58:55;32.38;;;16.67;;
22030;SDS011;11179;52.106;21.024;2023-11-19T11:01:24;33.30;;;17.35;;
22030;SDS011;11179;52.106;21.024;2023-11-19T11:03:52;30.90;;;17.52;;
22030;SDS011;11179;52.106;21.024;2023-11-19T11:06:21;33.25;;;17.92;;
22030;SDS011;11179;52.106;21.024;2023-11-19T11:08:48;32.70;;;17.67;;
22030;SDS011;11179;52.106;21.024;2023-11-19T11:11:15;30.80;;;17.67;;
22030;SDS011;11179;52.106;21.024;2023-11-19T11:13:46;33.33;;;18.15;;
22030;SDS011;11179;52.106;21.024;2023-11-19T11:16:12;35.35;;;16.90;;
22030;SDS011;11179;52.106;21.024;2023-11-19T11:18:39;36.10;;;18.95;;
22030;SDS011;11179;52.106;21.024;2023-11-19T11:21:09;32.30;;;16.73;;
22030;SDS011;11179;52.106;21.024;2023-11-19T11:29:14;37.03;;;18.25;;
22030;SDS011;11179;52.106;21.024;2023-11-19T11:35:19;36.22;;;18.15;;
22030;SDS011;11179;52.106;21.024;2023-11-19T11:38:08;35.10;;;17.95;;
22030;SDS011;11179;52.106;21.024;2023-11-19T11:40:33;37.65;;;19.77;;
22030;SDS011;11179;52.106;21.024;2023-11-19T11:42:59;35.77;;;18.70;;
22030;SDS011;11179;52.106;21.024;2023-11-19T11:45:40;34.37;;;18.10;;
22030;SDS011;11179;52.106;21.024;2023-11-19T11:48:11;36.55;;;18.23;;
22030;SDS011;11179;52.106;21.024;2023-11-19T11:50:53;35.70;;;18.77;;
22030;SDS011;11179;52.106;21.024;2023-11-19T11:53:23;33.70;;;17.33;;
22030;SDS011;11179;52.106;21.024;2023-11-19T11:58:18;36.77;;;19.40;;
22030;SDS011;11179;52.106;21.024;2023-11-19T12:00:44;41.40;;;19.98;;
22030;SDS011;11179;52.106;21.024;2023-11-19T12:03:11;42.67;;;20.58;;
22030;SDS011;11179;52.106;21.024;2023-11-19T12:05:46;34.90;;;19.70;;
22030;SDS011;11179;52.106;21.024;2023-11-19T12:08:13;36.83;;;18.98;;
22030;SDS011;11179;52.106;21.024;2023-11-19T12:10:47;41.58;;;20.88;;
22030;SDS011;11179;52.106;21.024;2023-11-19T12:13:14;38.30;;;20.30;;
22030;SDS011;11179;52.106;21.024;2023-11-19T12:18:22;37.25;;;20.15;;
22030;SDS011;11179;52.106;21.024;2023-11-19T12:20:48;38.10;;;18.90;;
22030;SDS011;11179;52.106;21.024;2023-11-19T12:23:14;43.87;;;20.37;;
22030;SDS011;11179;52.106;21.024;2023-11-19T12:25:39;36.80;;;19.33;;
22030;SDS011;11179;52.106;21.024;2023-11-19T12:28:05;40.83;;;20.30;;
22030;SDS011;11179;52.106;21.024;2023-11-19T12:30:30;42.13;;;20.83;;
22030;SDS011;11179;52.106;21.024;2023-11-19T12:32:56;40.33;;;21.00;;
22030;SDS011;11179;52.106;21.024;2023-11-19T12:35:21;44.00;;;22.40;;
22030;SDS011;11179;52.106;21.024;2023-11-19T12:37:48;41.58;;;20.50;;
22030;SDS011;11179;52.106;21.024;2023-11-19T12:40:15;37.95;;;20.02;;
22030;SDS011;11179;52.106;21.024;2023-11-19T12:42:42;38.80;;;20.00;;
22030;SDS011;11179;52.106;21.024;2023-11-19T12:45:08;42.80;;;21.83;;
22030;SDS011;11179;52.106;21.024;2023-11-19T12:47:38;37.28;;;19.13;;
22030;SDS011;11179;52.106;21.024;2023-11-19T12:50:04;40.90;;;19.85;;
22030;SDS011;11179;52.106;21.024;2023-11-19T12:52:30;39.93;;;19.60;;
22030;SDS011;11179;52.106;21.024;2023-11-19T12:54:55;36.77;;;18.87;;
22030;SDS011;11179;52.106;21.024;2023-11-19T12:57:35;38.80;;;18.75;;
22030;SDS011;11179;52.106;21.024;2023-11-19T13:00:04;39.45;;;20.05;;
22030;SDS011;11179;52.106;21.024;2023-11-19T13:02:47;37.42;;;20.08;;
22030;SDS011;11179;52.106;21.024;2023-11-19T13:05:26;35.95;;;19.67;;
22030;SDS011;11179;52.106;21.024;2023-11-19T13:10:25;40.58;;;19.90;;
22030;SDS011;11179;52.106;21.024;2023-11-19T13:13:07;41.17;;;21.15;;
22030;SDS011;11179;52.106;21.024;2023-11-19T13:15:34;37.30;;;19.75;;
22030;SDS011;11179;52.106;21.024;2023-11-19T13:18:01;37.90;;;20.13;;
22030;SDS011;11179;52.106;21.024;2023-11-19T13:20:27;39.78;;;20.50;;
22030;SDS011;11179;52.106;21.024;2023-11-19T13:22:56;47.27;;;21.20;;
22030;SDS011;11179;52.106;21.024;2023-11-19T13:25:29;38.40;;;19.27;;
22030;SDS011;11179;52.106;21.024;2023-11-19T13:27:55;44.20;;;21.90;;
22030;SDS011;11179;52.106;21.024;2023-11-19T13:30:21;43.20;;;20.70;;
22030;SDS011;11179;52.106;21.024;2023-11-19T13:32:47;40.28;;;19.08;;
22030;SDS011;11179;52.106;21.024;2023-11-19T13:35:13;41.20;;;21.53;;
22030;SDS011;11179;52.106;21.024;2023-11-19T13:37:39;38.87;;;19.70;;
22030;SDS011;11179;52.106;21.024;2023-11-19T13:40:05;37.22;;;20.95;;
22030;SDS011;11179;52.106;21.024;2023-11-19T13:42:32;50.05;;;25.77;;
22030;SDS011;11179;52.106;21.024;2023-11-19T13:44:57;47.30;;;23.73;;
22030;SDS011;11179;52.106;21.024;2023-11-19T13:47:23;40.80;;;21.10;;
22030;SDS011;11179;52.106;21.024;2023-11-19T13:49:49;41.87;;;21.03;;
22030;SDS011;11179;52.106;21.024;2023-11-19T13:52:14;46.50;;;22.27;;
22030;SDS011;11179;52.106;21.024;2023-11-19T13:54:39;45.27;;;21.70;;
22030;SDS011;11179;52.106;21.024;2023-11-19T13:57:05;45.57;;;22.70;;
22030;SDS011;11179;52.106;21.024;2023-11-19T13:59:30;46.70;;;23.53;;
22030;SDS011;11179;52.106;21.024;2023-11-19T14:01:57;44.83;;;23.13;;
22030;SDS011;11179;52.106;21.024;2023-11-19T14:04:23;52.07;;;24.60;;
22030;SDS011;11179;52.106;21.024;2023-11-19T14:06:48;52.93;;;24.40;;
22030;SDS011;11179;52.106;21.024;2023-11-19T14:09:13;44.80;;;23.67;;
22030;SDS011;11179;52.106;21.024;2023-11-19T14:11:39;49.13;;;23.60;;
22030;SDS011;11179;52.106;21.024;2023-11-19T14:14:05;50.28;;;22.23;;
22030;SDS011;11179;52.106;21.024;2023-11-19T14:16:30;45.60;;;22.87;;
22030;SDS011;11179;52.106;21.024;2023-11-19T14:21:41;51.65;;;25.08;;
22030;SDS011;11179;52.106;21.024;2023-11-19T14:24:07;49.10;;;25.93;;
22030;SDS011;11179;52.106;21.024;2023-11-19T14:26:32;53.90;;;24.83;;
22030;SDS011;11179;52.106;21.024;2023-11-19T14:28:57;49.53;;;26.13;;